Time;durP1;ratioP1;P1;durP2;ratioP2;P2;SDS_P1;SDS_P2;PMS_P1;PMS_P2;Temp;Humidity;BMP_temperature;BMP_pressure;BME280_temperature;BME280_humidity;BME280_pressure;Samples;Min_cycle;Max_cycle;Signal;HPM_P1;HPM_P2
2021/12/22 00:02:06;;;;;;;178.30;90.30;;;;;;;-4.74;95.50;99869.83;102564;1310;70182;-85
2021/12/22 00:04:38;;;;;;;182.50;90.50;;;;;;;-4.74;95.71;99873.47;102456;1317;74362;-84
2021/12/22 00:07:05;;;;;;;177.60;84.40;;;;;;;-4.76;95.51;99876.56;102333;1316;61442;-83
2021/12/22 00:09:32;;;;;;;182.00;87.50;;;;;;;-4.77;95.63;99873.95;102358;1314;61253;-83
2021/12/22 00:11:58;;;;;;;181.90;88.90;;;;;;;-4.76;95.47;99888.34;102577;1316;75574;-83
2021/12/22 00:14:25;;;;;;;162.90;82.90;;;;;;;-4.78;95.33;99893.86;102367;1310;61326;-83
2021/12/22 00:16:51;;;;;;;178.70;90.60;;;;;;;-4.82;95.24;99907.02;102186;1318;61518;-83
2021/12/22 00:19:18;;;;;;;162.20;81.60;;;;;;;-4.85;95.30;99908.20;102424;1316;61343;-84
2021/12/22 00:21:44;;;;;;;154.30;81.80;;;;;;;-4.87;95.31;99908.02;102386;1311;61518;-85
2021/12/22 00:24:11;;;;;;;161.40;80.20;;;;;;;-4.87;95.42;99910.43;102351;1317;76126;-83
2021/12/22 00:26:38;;;;;;;154.50;74.80;;;;;;;-4.89;95.27;99914.92;102352;1310;69386;-83
2021/12/22 00:29:05;;;;;;;145.30;74.90;;;;;;;-4.91;95.21;99918.70;102300;1317;73336;-84
2021/12/22 00:31:40;;;;;;;150.00;77.90;;;;;;;-4.93;95.33;99920.25;102188;1317;61302;-84
2021/12/22 00:34:15;;;;;;;134.90;74.20;;;;;;;-4.91;95.45;99920.44;102345;1310;61750;-82
2021/12/22 00:36:44;;;;;;;129.80;68.70;;;;;;;-4.90;95.45;99924.44;102301;1310;76504;-83
2021/12/22 00:39:11;;;;;;;136.90;71.60;;;;;;;-4.89;95.48;99928.79;102323;1314;69955;-84
2021/12/22 00:41:38;;;;;;;131.10;70.30;;;;;;;-4.85;95.49;99926.73;102385;1317;73514;-84
2021/12/22 00:44:05;;;;;;;126.90;62.70;;;;;;;-4.81;95.51;99924.87;102337;1316;61453;-83
2021/12/22 00:46:32;;;;;;;123.40;63.60;;;;;;;-4.80;95.51;99927.14;102492;1316;61393;-83
2021/12/22 00:48:58;;;;;;;143.60;70.70;;;;;;;-4.80;95.44;99925.58;102448;1315;75752;-83
2021/12/22 00:51:25;;;;;;;148.30;72.10;;;;;;;-4.80;95.48;99930.25;102319;1310;69593;-84
2021/12/22 00:53:51;;;;;;;128.20;65.60;;;;;;;-4.81;95.54;99938.58;102099;1314;73897;-85
2021/12/22 00:56:18;;;;;;;135.20;69.80;;;;;;;-4.83;95.42;99936.98;102108;1316;61354;-83
2021/12/22 00:58:45;;;;;;;133.70;72.00;;;;;;;-4.85;95.47;99932.80;102389;1313;61301;-83
2021/12/22 01:01:11;;;;;;;140.40;72.80;;;;;;;-4.86;95.55;99928.29;102053;1317;61355;-84
2021/12/22 01:03:38;;;;;;;158.00;79.40;;;;;;;-4.85;95.62;99932.64;102296;1314;70265;-84
2021/12/22 01:06:05;;;;;;;169.10;82.50;;;;;;;-4.83;95.73;99935.41;102111;1313;74563;-84
2021/12/22 01:08:32;;;;;;;165.80;85.70;;;;;;;-4.82;95.87;99935.26;102341;1311;61285;-84
2021/12/22 01:10:58;;;;;;;192.90;94.60;;;;;;;-4.80;95.80;99932.16;102393;1314;61222;-84
2021/12/22 01:13:25;;;;;;;184.20;92.20;;;;;;;-4.79;95.92;99934.25;102332;1310;75178;-84
2021/12/22 01:15:52;;;;;;;179.00;87.00;;;;;;;-4.79;95.99;99939.63;102505;1310;69321;-84
2021/12/22 01:18:29;;;;;;;178.10;89.80;;;;;;;-4.76;96.11;99937.76;102006;1313;73242;-83
2021/12/22 01:21:08;;;;;;;176.60;91.70;;;;;;;-4.74;96.13;99934.65;102425;1310;61321;-83
2021/12/22 01:23:47;;;;;;;169.40;87.10;;;;;;;-4.72;96.22;99928.95;102470;1316;61251;-83
2021/12/22 01:26:14;;;;;;;143.30;79.50;;;;;;;-4.70;96.38;99936.25;102816;1310;74347;-81
2021/12/22 01:28:42;;;;;;;174.90;86.60;;;;;;;-4.69;96.39;99942.66;102829;1316;69199;-84
2021/12/22 01:31:15;;;;;;;163.80;80.70;;;;;;;-4.68;96.40;99947.90;102589;1310;72826;-82
2021/12/22 01:33:42;;;;;;;154.00;79.40;;;;;;;-4.65;96.52;99949.83;102460;1310;61351;-85
2021/12/22 01:36:09;;;;;;;150.70;78.20;;;;;;;-4.63;96.50;99947.92;102458;1310;61422;-84
2021/12/22 01:38:36;;;;;;;154.80;83.00;;;;;;;-4.61;96.65;99946.57;102485;1310;76460;-83
2021/12/22 01:41:03;;;;;;;155.70;77.00;;;;;;;-4.59;96.69;99945.20;102211;1313;70527;-84
2021/12/22 01:43:29;;;;;;;145.90;74.80;;;;;;;-4.56;96.80;99947.48;102600;1316;72723;-84
2021/12/22 01:49:11;;;;;;;149.50;71.80;;;;;;;-4.51;96.81;99953.77;102200;1310;62023;-80
2021/12/22 01:51:43;;;;;;;133.30;71.60;;;;;;;-4.50;96.75;99945.80;102016;1316;75147;-85
2021/12/22 01:54:19;;;;;;;130.60;71.50;;;;;;;-4.50;96.82;99947.89;102183;1320;69514;-85
2021/12/22 01:56:47;;;;;;;143.10;72.60;;;;;;;-4.50;96.80;99948.05;101679;1322;71508;-84
2021/12/22 01:59:15;;;;;;;139.70;74.90;;;;;;;-4.48;96.86;99945.63;102300;1316;61495;-83
2021/12/22 02:01:43;;;;;;;139.60;71.40;;;;;;;-4.48;96.78;99947.73;101932;1316;62472;-84
2021/12/22 02:04:12;;;;;;;135.80;71.80;;;;;;;-4.49;96.70;99941.13;101626;1317;76473;-84
2021/12/22 02:06:43;;;;;;;142.40;72.10;;;;;;;-4.50;96.71;99944.58;101846;1320;69326;-83
2021/12/22 02:09:13;;;;;;;138.00;71.90;;;;;;;-4.50;96.75;99942.84;102203;1317;72904;-84
2021/12/22 02:11:40;;;;;;;140.70;69.00;;;;;;;-4.50;96.78;99942.33;101996;1317;61438;-81
2021/12/22 02:14:07;;;;;;;143.70;69.30;;;;;;;-4.52;96.74;99942.48;102141;1316;61926;-83
2021/12/22 02:16:39;;;;;;;145.00;70.60;;;;;;;-4.51;96.80;99937.46;101888;1319;74862;-84
2021/12/22 02:19:08;;;;;;;142.20;71.50;;;;;;;-4.48;96.84;99936.27;101568;1317;70327;-84
2021/12/22 02:21:45;;;;;;;130.30;68.10;;;;;;;-4.46;96.80;99931.44;102200;1320;75090;-84
2021/12/22 02:24:12;;;;;;;132.30;68.20;;;;;;;-4.46;96.77;99931.61;102678;1316;61321;-83
2021/12/22 02:26:49;;;;;;;130.00;63.70;;;;;;;-4.47;96.89;99928.33;102605;1310;61196;-83
2021/12/22 02:29:22;;;;;;;141.00;66.40;;;;;;;-4.48;96.76;99932.98;102210;1316;76159;-83
2021/12/22 02:32:01;;;;;;;137.10;67.80;;;;;;;-4.49;96.82;99933.67;102545;1310;69535;-83
2021/12/22 02:34:28;;;;;;;123.90;63.10;;;;;;;-4.51;96.81;99933.48;102122;1314;74289;-82
2021/12/22 02:36:59;;;;;;;127.80;63.90;;;;;;;-4.54;96.83;99931.90;102363;1316;61338;-84
2021/12/22 02:39:26;;;;;;;133.90;69.00;;;;;;;-4.58;96.86;99927.53;102545;1316;61365;-83
2021/12/22 02:41:53;;;;;;;134.90;67.70;;;;;;;-4.61;96.84;99929.73;102616;1310;75453;-83
2021/12/22 02:44:22;;;;;;;126.10;64.90;;;;;;;-4.64;96.87;99931.63;102431;1310;69317;-84
2021/12/22 02:46:50;;;;;;;128.40;65.60;;;;;;;-4.67;97.00;99930.38;102188;1313;73361;-82
2021/12/22 02:49:17;;;;;;;120.60;64.00;;;;;;;-4.69;97.00;99927.42;102450;1313;61390;-81
2021/12/22 02:51:43;;;;;;;117.70;62.00;;;;;;;-4.68;96.93;99927.43;102440;1310;61869;-85
2021/12/22 02:54:17;;;;;;;122.80;63.80;;;;;;;-4.67;97.08;99932.63;102333;1310;76329;-83
2021/12/22 02:59:42;;;;;;;109.00;58.90;;;;;;;-4.67;96.99;99941.84;102401;1310;74270;-82
2021/12/22 03:04:43;;;;;;;111.60;58.30;;;;;;;-4.62;96.99;99940.31;102350;1317;62272;-84
2021/12/22 03:07:16;;;;;;;101.40;54.00;;;;;;;-4.59;96.93;99936.19;102521;1310;75606;-84
2021/12/22 03:09:44;;;;;;;96.50;50.90;;;;;;;-4.56;96.95;99934.13;102516;1310;68564;-84
2021/12/22 03:12:13;;;;;;;98.10;53.20;;;;;;;-4.53;96.98;99936.75;102553;1310;73930;-83
2021/12/22 03:14:40;;;;;;;98.60;50.10;;;;;;;-4.51;96.87;99937.81;102625;1310;61393;-83
2021/12/22 03:17:07;;;;;;;78.60;41.10;;;;;;;-4.48;96.90;99937.14;103138;1317;62343;-83
2021/12/22 03:19:35;;;;;;;84.60;44.20;;;;;;;-4.48;96.75;99937.66;102638;1313;75343;-84
2021/12/22 03:22:07;;;;;;;87.30;45.50;;;;;;;-4.49;96.71;99942.68;102589;1317;69229;-84
2021/12/22 03:24:36;;;;;;;93.80;49.00;;;;;;;-4.49;96.95;99941.81;102521;1310;74307;-84
2021/12/22 03:27:04;;;;;;;75.40;42.30;;;;;;;-4.46;96.88;99942.72;102528;1310;61407;-84
2021/12/22 03:29:34;;;;;;;86.30;46.60;;;;;;;-4.48;96.83;99944.59;102462;1310;61291;-84
2021/12/22 03:32:01;;;;;;;89.10;48.70;;;;;;;-4.50;96.92;99946.15;102131;1317;76137;-84
2021/12/22 03:34:28;;;;;;;86.90;47.10;;;;;;;-4.49;97.06;99950.31;102523;1317;68801;-83
2021/12/22 03:36:55;;;;;;;81.80;46.00;;;;;;;-4.50;97.14;99945.11;102384;1310;72901;-83
2021/12/22 03:39:21;;;;;;;82.90;45.70;;;;;;;-4.49;97.22;99944.95;102294;1313;61390;-83
2021/12/22 03:41:49;;;;;;;86.10;47.70;;;;;;;-4.49;97.12;99948.06;102411;1310;61337;-84
2021/12/22 03:44:17;;;;;;;85.20;47.80;;;;;;;-4.48;97.24;99947.72;102530;1311;76459;-83
2021/12/22 03:46:43;;;;;;;83.50;46.40;;;;;;;-4.47;97.40;99946.88;102571;1316;69564;-84
2021/12/22 03:49:12;;;;;;;84.30;47.00;;;;;;;-4.45;97.29;99947.23;102573;1311;73433;-85
2021/12/22 03:51:39;;;;;;;86.80;46.90;;;;;;;-4.44;97.32;99947.07;102590;1310;61273;-83
2021/12/22 03:54:09;;;;;;;82.10;43.70;;;;;;;-4.43;97.33;99950.37;102822;1310;61326;-83
2021/12/22 03:56:36;;;;;;;79.40;44.60;;;;;;;-4.44;97.53;99948.98;102800;1310;75539;-84
2021/12/22 03:59:04;;;;;;;73.90;43.50;;;;;;;-4.44;97.47;99950.88;102530;1310;70353;-84
2021/12/22 04:01:31;;;;;;;81.70;47.30;;;;;;;-4.46;97.43;99951.73;102533;1310;73321;-82
2021/12/22 04:04:02;;;;;;;84.50;47.60;;;;;;;-4.43;97.70;99953.33;102475;1310;61330;-83
2021/12/22 04:06:29;;;;;;;83.60;43.80;;;;;;;-4.41;97.62;99951.77;102522;1311;61661;-84
2021/12/22 04:08:55;;;;;;;89.20;48.40;;;;;;;-4.39;97.73;99953.36;102647;1310;61337;-81
2021/12/22 04:11:22;;;;;;;81.60;47.20;;;;;;;-4.37;97.78;99951.81;102705;1310;66677;-79
2021/12/22 04:13:49;;;;;;;81.00;45.90;;;;;;;-4.34;97.85;99948.54;102539;1310;61378;-85
2021/12/22 04:16:15;;;;;;;80.10;45.70;;;;;;;-4.33;97.83;99954.45;102590;1310;61340;-85
2021/12/22 04:18:42;;;;;;;88.20;45.50;;;;;;;-4.31;97.98;99953.60;102516;1313;62161;-84
2021/12/22 04:21:08;;;;;;;79.50;46.00;;;;;;;-4.27;98.11;99954.67;102500;1313;61308;-84
2021/12/22 04:23:35;;;;;;;75.20;43.20;;;;;;;-4.24;98.07;99956.08;102462;1313;61420;-83
2021/12/22 04:26:02;;;;;;;85.20;46.70;;;;;;;-4.23;98.24;99951.92;102367;1314;61361;-83
2021/12/22 04:28:29;;;;;;;81.20;45.10;;;;;;;-4.19;98.29;99957.52;100977;1310;1003440;-82
2021/12/22 04:30:55;;;;;;;72.80;42.90;;;;;;;-4.18;98.26;99953.36;101985;1316;61508;-82
2021/12/22 04:33:22;;;;;;;78.20;44.60;;;;;;;-4.17;98.35;99951.29;102454;1310;74798;-84
2021/12/22 04:35:50;;;;;;;73.70;40.60;;;;;;;-4.16;98.37;99953.39;102494;1310;69758;-84
2021/12/22 04:38:17;;;;;;;80.40;44.40;;;;;;;-4.15;98.46;99954.60;102612;1310;74432;-85
2021/12/22 04:40:45;;;;;;;80.20;44.40;;;;;;;-4.15;98.42;99957.90;102433;1313;61327;-84
2021/12/22 04:43:11;;;;;;;74.60;43.30;;;;;;;-4.16;98.41;99954.93;102331;1314;61784;-81
2021/12/22 04:45:38;;;;;;;82.70;45.00;;;;;;;-4.17;98.53;99950.59;103203;1310;76616;-81
2021/12/22 04:48:05;;;;;;;80.10;44.50;;;;;;;-4.17;98.61;99951.27;103921;1311;66342;-84
2021/12/22 04:50:33;;;;;;;76.00;44.20;;;;;;;-4.16;98.68;99952.51;103839;1316;74177;-83
2021/12/22 04:53:21;;;;;;;71.40;39.60;;;;;;;-4.16;98.63;99959.45;103914;1310;60103;-82
2021/12/22 04:55:48;;;;;;;74.70;41.70;;;;;;;-4.16;98.70;99963.27;103713;1311;61225;-83
2021/12/22 04:58:15;;;;;;;78.80;45.40;;;;;;;-4.15;98.69;99969.17;103716;1311;76416;-83
2021/12/22 05:00:42;;;;;;;78.20;43.60;;;;;;;-4.12;98.95;99971.28;103510;1310;70513;-84
2021/12/22 05:03:09;;;;;;;79.10;47.50;;;;;;;-4.09;98.98;99967.48;103313;1310;74764;-83
2021/12/22 05:05:35;;;;;;;76.70;46.50;;;;;;;-4.05;99.03;99968.91;102739;1310;61308;-83
2021/12/22 05:08:03;;;;;;;77.40;45.20;;;;;;;-4.04;98.98;99966.14;102519;1310;61358;-83
2021/12/22 05:10:30;;;;;;;85.00;48.10;;;;;;;-4.02;99.11;99963.04;102507;1313;75505;-84
2021/12/22 05:12:57;;;;;;;84.40;47.50;;;;;;;-4.00;99.19;99959.92;102751;1311;69512;-86
2021/12/22 05:15:26;;;;;;;77.80;42.70;;;;;;;-3.97;99.19;99958.91;102701;1310;73204;-82
2021/12/22 05:20:21;;;;;;;78.40;45.00;;;;;;;-3.93;99.32;99961.70;102979;1316;61237;-83
2021/12/22 05:22:48;;;;;;;82.10;44.30;;;;;;;-3.90;99.52;99960.33;103025;1310;75745;-83
2021/12/22 05:25:16;;;;;;;72.90;42.30;;;;;;;-3.88;99.54;99963.30;102913;1310;69517;-84
2021/12/22 05:27:43;;;;;;;80.50;45.30;;;;;;;-3.86;99.61;99966.95;102966;1310;73176;-85
2021/12/22 05:30:11;;;;;;;78.00;42.60;;;;;;;-3.84;99.63;99967.15;102637;1314;61401;-83
2021/12/22 05:32:38;;;;;;;73.20;42.80;;;;;;;-3.83;99.62;99966.47;103158;1310;61288;-83
2021/12/22 05:35:09;;;;;;;69.50;38.70;;;;;;;-3.81;99.73;99965.95;103194;1310;75425;-83
2021/12/22 05:37:36;;;;;;;81.20;44.30;;;;;;;-3.79;99.66;99965.27;103278;1314;70667;-83
2021/12/22 05:40:06;;;;;;;77.90;42.40;;;;;;;-3.78;99.77;99967.88;103339;1310;74245;-84
2021/12/22 05:42:33;;;;;;;78.50;46.00;;;;;;;-3.77;99.87;99965.80;103549;1310;61454;-83
2021/12/22 05:44:59;;;;;;;84.60;47.60;;;;;;;-3.75;99.78;99967.73;103708;1313;61335;-82
2021/12/22 05:47:26;;;;;;;78.10;46.80;;;;;;;-3.75;99.86;99967.73;104941;1313;76804;-83
2021/12/22 05:49:52;;;;;;;77.40;44.80;;;;;;;-3.73;99.97;99968.79;104974;1317;69608;-84
2021/12/22 05:52:19;;;;;;;86.00;47.10;;;;;;;-3.73;99.93;99975.38;104829;1314;71732;-83
2021/12/22 05:54:46;;;;;;;81.40;46.40;;;;;;;-3.71;99.98;99980.95;105036;1316;61114;-85
2021/12/22 05:57:12;;;;;;;82.90;45.60;;;;;;;-3.71;99.98;99980.79;104939;1317;60861;-84
2021/12/22 05:59:39;;;;;;;79.00;43.90;;;;;;;-3.71;99.99;99987.71;104347;1317;75564;-83
2021/12/22 06:02:05;;;;;;;81.90;46.80;;;;;;;-3.71;99.99;99993.43;103872;1311;70504;-84
2021/12/22 06:04:32;;;;;;;84.50;48.20;;;;;;;-3.70;100.00;99999.02;103846;1310;73563;-83
2021/12/22 06:06:59;;;;;;;81.50;47.70;;;;;;;-3.68;100.00;99997.98;103886;1311;61298;-84
2021/12/22 06:09:26;;;;;;;78.10;48.10;;;;;;;-3.66;100.00;99998.54;103043;1316;61349;-83
2021/12/22 06:11:52;;;;;;;85.60;47.30;;;;;;;-3.65;100.00;100000.61;102742;1310;61417;-84
2021/12/22 06:14:19;;;;;;;85.20;49.90;;;;;;;-3.62;100.00;100002.89;102462;1313;67360;-83
2021/12/22 06:16:45;;;;;;;77.20;47.80;;;;;;;-3.58;100.00;100004.66;102411;1319;73329;-83
2021/12/22 06:19:13;;;;;;;79.90;47.90;;;;;;;-3.56;100.00;100006.40;102298;1317;61303;-85
2021/12/22 06:21:41;;;;;;;75.50;45.30;;;;;;;-3.54;100.00;100007.46;102331;1318;61272;-84
2021/12/22 06:24:08;;;;;;;79.10;45.40;;;;;;;-3.53;100.00;100007.63;102642;1310;75395;-84
2021/12/22 06:26:34;;;;;;;80.20;46.30;;;;;;;-3.51;100.00;100012.34;102622;1316;69283;-86
2021/12/22 06:29:01;;;;;;;87.60;50.60;;;;;;;-3.49;100.00;100017.73;102611;1310;73510;-84
2021/12/22 06:31:28;;;;;;;85.20;48.70;;;;;;;-3.45;100.00;100017.95;102534;1310;61343;-84
2021/12/22 06:33:55;;;;;;;79.60;44.80;;;;;;;-3.44;100.00;100021.08;102652;1310;61370;-84
2021/12/22 06:36:21;;;;;;;79.90;47.40;;;;;;;-3.44;100.00;100028.37;102703;1316;75225;-84
2021/12/22 06:38:48;;;;;;;86.10;48.60;;;;;;;-3.44;100.00;100031.15;102672;1311;68505;-84
2021/12/22 06:41:15;;;;;;;82.10;48.60;;;;;;;-3.42;100.00;100033.23;102410;1318;74761;-84
2021/12/22 06:43:41;;;;;;;80.80;47.80;;;;;;;-3.41;100.00;100037.25;102659;1310;61406;-84
2021/12/22 06:46:09;;;;;;;92.80;52.10;;;;;;;-3.41;100.00;100036.73;102971;1310;61333;-85
2021/12/22 06:48:36;;;;;;;85.70;48.10;;;;;;;-3.40;100.00;100042.98;103110;1316;75200;-84
2021/12/22 06:51:03;;;;;;;88.80;50.00;;;;;;;-3.38;100.00;100051.50;103136;1310;69873;-85
2021/12/22 06:53:34;;;;;;;88.80;53.60;;;;;;;-3.37;100.00;100050.30;102834;1310;74605;-85
2021/12/22 06:56:01;;;;;;;92.90;54.30;;;;;;;-3.35;100.00;100055.36;102838;1310;61332;-84
2021/12/22 06:58:28;;;;;;;85.30;49.60;;;;;;;-3.33;100.00;100053.45;102899;1310;61371;-86
2021/12/22 07:00:55;;;;;;;81.50;49.30;;;;;;;-3.32;100.00;100054.17;102576;1310;76384;-85
2021/12/22 07:03:21;;;;;;;80.80;51.00;;;;;;;-3.29;100.00;100056.09;102551;1310;70465;-85
2021/12/22 07:05:48;;;;;;;86.70;51.40;;;;;;;-3.26;100.00;100063.06;102605;1311;74185;-83
2021/12/22 07:08:14;;;;;;;86.70;50.60;;;;;;;-3.24;100.00;100065.33;102475;1316;61314;-83
2021/12/22 07:10:41;;;;;;;84.70;48.80;;;;;;;-3.21;100.00;100067.08;102539;1310;61559;-84
2021/12/22 07:13:10;;;;;;;81.60;49.60;;;;;;;-3.21;100.00;100065.16;102629;1317;75245;-84
2021/12/22 07:15:37;;;;;;;94.80;52.70;;;;;;;-3.23;100.00;100070.19;102172;1314;69550;-83
2021/12/22 07:18:08;;;;;;;80.70;45.40;;;;;;;-3.20;100.00;100072.46;102660;1310;74265;-83
2021/12/22 07:20:35;;;;;;;84.30;50.30;;;;;;;-3.19;100.00;100069.52;102673;1313;61327;-85
2021/12/22 07:23:03;;;;;;;86.30;52.00;;;;;;;-3.16;100.00;100074.40;102700;1313;61309;-84
2021/12/22 07:25:30;;;;;;;94.50;54.60;;;;;;;-3.14;100.00;100072.16;102837;1310;73751;-85
2021/12/22 07:27:57;;;;;;;100.60;58.60;;;;;;;-3.12;100.00;100073.73;102833;1310;69531;-85
2021/12/22 07:30:25;;;;;;;149.90;73.50;;;;;;;-3.08;100.00;100078.98;102806;1310;74616;-85
2021/12/22 07:32:51;;;;;;;176.60;80.50;;;;;;;-3.07;100.00;100081.59;102880;1310;61315;-85
2021/12/22 07:35:28;;;;;;;142.30;74.00;;;;;;;-3.05;100.00;100084.73;102895;1317;62097;-85
2021/12/22 07:38:10;;;;;;;140.80;74.70;;;;;;;-3.01;100.00;100084.74;102913;1316;75473;-85
2021/12/22 07:40:37;;;;;;;127.50;71.20;;;;;;;-2.98;100.00;100083.55;102947;1310;70082;-84
2021/12/22 07:43:04;;;;;;;109.20;63.10;;;;;;;-2.94;100.00;100089.83;102841;1310;74090;-85
2021/12/22 07:45:31;;;;;;;116.40;63.60;;;;;;;-2.91;100.00;100092.80;102462;1311;61394;-82
2021/12/22 07:47:57;;;;;;;106.50;65.20;;;;;;;-2.89;100.00;100096.98;102744;1314;61327;-83
2021/12/22 07:50:24;;;;;;;106.90;66.30;;;;;;;-2.85;100.00;100095.44;102559;1311;61489;-86
2021/12/22 07:52:51;;;;;;;111.10;66.40;;;;;;;-2.81;100.00;100093.89;102558;1310;69316;-84
2021/12/22 07:55:17;;;;;;;106.00;64.40;;;;;;;-2.75;100.00;100097.21;102364;1313;206001;-84
2021/12/22 07:57:47;;;;;;;104.70;62.60;;;;;;;-2.68;100.00;100095.34;102546;1310;61690;-85
2021/12/22 08:00:16;;;;;;;101.30;59.00;;;;;;;-2.64;100.00;100093.28;102444;1313;61911;-85
2021/12/22 08:02:42;;;;;;;98.20;59.80;;;;;;;-2.60;100.00;100093.64;102641;1311;76389;-84
2021/12/22 08:05:09;;;;;;;96.70;58.80;;;;;;;-2.56;100.00;100096.61;102609;1310;70238;-85
2021/12/22 08:07:36;;;;;;;86.70;54.60;;;;;;;-2.52;100.00;100098.02;102551;1310;73469;-85
2021/12/22 08:10:07;;;;;;;91.80;56.10;;;;;;;-2.50;100.00;100099.08;102087;1316;61472;-85
2021/12/22 08:12:34;;;;;;;94.50;57.40;;;;;;;-2.48;100.00;100098.20;101983;1310;1003711;-86
2021/12/22 08:15:01;;;;;;;101.00;60.20;;;;;;;-2.42;100.00;100097.88;102595;1310;76162;-83
2021/12/22 08:17:30;;;;;;;93.30;54.30;;;;;;;-2.36;100.00;100100.52;102639;1316;69650;-83
2021/12/22 08:19:57;;;;;;;94.20;55.10;;;;;;;-2.27;100.00;100101.58;102160;1314;71791;-85
2021/12/22 08:22:24;;;;;;;87.80;54.30;;;;;;;-2.18;100.00;100102.66;102952;1310;61473;-85
2021/12/22 08:24:51;;;;;;;86.50;51.30;;;;;;;-2.11;100.00;100104.75;102583;1310;61186;-85
2021/12/22 08:27:19;;;;;;;84.00;51.10;;;;;;;-2.06;100.00;100103.90;102565;1313;76414;-85
2021/12/22 08:29:45;;;;;;;89.50;52.40;;;;;;;-2.03;100.00;100106.34;102735;1310;67466;-85
2021/12/22 08:32:13;;;;;;;89.20;54.90;;;;;;;-2.00;99.96;100109.48;102683;1310;74466;-83
2021/12/22 08:34:41;;;;;;;88.00;53.90;;;;;;;-1.94;100.00;100111.92;102899;1311;61315;-81
2021/12/22 08:39:57;;;;;;;93.60;58.20;;;;;;;-1.84;100.00;100117.16;102577;1310;75544;-85
2021/12/22 08:42:24;;;;;;;107.60;63.20;;;;;;;-1.76;99.96;100119.96;102892;1311;69581;-79
2021/12/22 08:44:52;;;;;;;97.40;61.50;;;;;;;-1.72;99.87;100121.02;102739;1310;73137;-83
2021/12/22 08:47:20;;;;;;;102.30;61.90;;;;;;;-1.70;99.77;100121.54;102998;1310;61339;-84
2021/12/22 08:49:47;;;;;;;95.40;58.20;;;;;;;-1.68;99.61;100121.55;103815;1314;61362;-84
2021/12/22 08:52:13;;;;;;;94.70;61.30;;;;;;;-1.68;99.51;100123.64;103369;1310;75769;-85
2021/12/22 08:54:40;;;;;;;87.10;52.80;;;;;;;-1.71;99.30;100125.54;102693;1317;70687;-85
2021/12/22 08:57:07;;;;;;;89.60;53.00;;;;;;;-1.84;98.75;100132.50;102825;1310;73411;-85
2021/12/22 08:59:34;;;;;;;73.90;47.90;;;;;;;-1.96;98.52;100135.61;102304;1310;1016496;-84
2021/12/22 09:02:04;;;;;;;76.40;47.00;;;;;;;-2.08;98.33;100135.05;103066;1317;62086;-85
2021/12/22 09:04:32;;;;;;;78.10;48.30;;;;;;;-2.17;98.25;100134.33;102787;1316;76481;-86
2021/12/22 09:06:59;;;;;;;74.60;47.30;;;;;;;-2.21;98.31;100132.59;103153;1314;69241;-85
2021/12/22 09:09:26;;;;;;;73.70;46.50;;;;;;;-2.28;98.33;100131.00;103144;1311;73509;-85
2021/12/22 09:11:53;;;;;;;75.00;46.90;;;;;;;-2.35;98.28;100135.33;103024;1310;61337;-85
2021/12/22 09:14:21;;;;;;;81.50;50.70;;;;;;;-2.37;98.24;100132.02;102575;1310;61525;-85
2021/12/22 09:16:53;;;;;;;82.30;53.70;;;;;;;-2.33;98.40;100136.37;102991;1310;75718;-83
2021/12/22 09:19:20;;;;;;;83.10;52.00;;;;;;;-2.26;98.44;100134.83;102943;1311;69253;-83
2021/12/22 09:21:46;;;;;;;78.60;50.80;;;;;;;-2.20;98.50;100135.90;102966;1310;73988;-82
2021/12/22 09:24:13;;;;;;;81.20;50.60;;;;;;;-2.15;98.47;100135.04;102651;1313;61189;-85
2021/12/22 09:26:43;;;;;;;78.70;48.60;;;;;;;-2.09;98.29;100133.49;102452;1316;61273;-82
2021/12/22 09:29:10;;;;;;;;;;;;;;;-2.04;98.08;100136.81;102417;1316;75511;-84
2021/12/22 09:31:37;;;;;;;66.20;42.40;;;;;;;-2.00;97.74;100138.73;102865;1310;68967;-84
2021/12/22 09:34:05;;;;;;;58.40;38.40;;;;;;;-1.92;97.84;100143.96;102388;1313;74519;-84
2021/12/22 09:36:32;;;;;;;49.10;31.10;;;;;;;-1.86;97.43;100139.98;102967;1310;61324;-83
2021/12/22 09:38:59;;;;;;;38.00;24.80;;;;;;;-1.83;96.89;100143.81;103024;1310;61299;-83
2021/12/22 09:41:26;;;;;;;39.10;24.40;;;;;;;-1.80;96.38;100146.43;102525;1313;76543;-83
2021/12/22 09:43:55;;;;;;;40.50;25.30;;;;;;;-1.76;96.01;100146.09;102611;1313;67650;-84
2021/12/22 09:46:23;;;;;;;39.80;23.90;;;;;;;-1.75;95.61;100152.71;102667;1310;73389;-82
2021/12/22 09:48:58;;;;;;;30.60;20.50;;;;;;;-1.71;95.11;100150.46;102507;1316;61297;-84
2021/12/22 09:53:54;;;;;;;33.00;21.90;;;;;;;-1.66;95.12;100146.27;103050;1314;76754;-85
2021/12/22 09:56:24;;;;;;;29.80;19.10;;;;;;;-1.63;94.45;100145.59;103054;1316;69520;-85
2021/12/22 09:58:51;;;;;;;27.60;18.50;;;;;;;-1.64;94.07;100145.59;102731;1310;73239;-85
2021/12/22 10:01:22;;;;;;;31.00;18.60;;;;;;;-1.71;94.23;100142.27;102962;1310;61334;-83
2021/12/22 10:03:50;;;;;;;26.10;16.90;;;;;;;-1.77;94.02;100142.42;102605;1317;61575;-84
2021/12/22 10:06:17;;;;;;;27.00;17.40;;;;;;;-1.78;94.13;100140.52;103128;1310;76255;-85
2021/12/22 10:08:57;;;;;;;24.90;16.80;;;;;;;-1.77;93.70;100142.26;104032;1310;68383;-83
2021/12/22 10:11:25;;;;;;;23.70;16.20;;;;;;;-1.74;93.60;100144.01;104044;1318;74730;-84
2021/12/22 10:13:52;;;;;;;23.00;14.80;;;;;;;-1.70;93.44;100136.34;103451;1313;1003348;-83
2021/12/22 10:16:28;;;;;;;21.80;14.50;;;;;;;-1.67;92.94;100141.58;103672;1310;61335;-84
2021/12/22 10:19:06;;;;;;;22.20;14.10;;;;;;;-1.67;92.39;100138.44;103211;1316;76514;-85
2021/12/22 10:21:34;;;;;;;19.20;13.50;;;;;;;-1.66;92.63;100137.21;103830;1314;69675;-84
2021/12/22 10:24:05;;;;;;;19.70;12.30;;;;;;;-1.65;92.22;100136.02;103720;1310;71267;-84
2021/12/22 10:26:32;;;;;;;20.10;12.50;;;;;;;-1.64;92.25;100133.39;102744;1310;61437;-84
2021/12/22 10:29:01;;;;;;;26.20;18.50;;;;;;;-1.63;91.98;100135.14;102664;1316;61888;-83
2021/12/22 10:31:40;;;;;;;21.90;14.20;;;;;;;-1.64;92.03;100132.87;102732;1310;75157;-83
2021/12/22 10:34:13;;;;;;;21.80;13.70;;;;;;;-1.61;91.68;100130.77;102625;1317;69430;-83
2021/12/22 10:36:52;;;;;;;20.70;13.10;;;;;;;-1.63;91.70;100128.86;102861;1316;73481;-84
2021/12/22 10:39:25;;;;;;;24.40;15.00;;;;;;;-1.65;91.56;100130.61;102668;1317;61298;-84
2021/12/22 10:41:52;;;;;;;21.10;13.30;;;;;;;-1.67;91.58;100130.08;102807;1310;61399;-85
2021/12/22 10:44:20;;;;;;;16.90;11.80;;;;;;;-1.66;91.49;100131.46;102369;1314;75084;-84
2021/12/22 10:46:47;;;;;;;16.60;10.60;;;;;;;-1.68;90.88;100130.42;102738;1310;68663;-85
2021/12/22 10:49:20;;;;;;;15.80;10.50;;;;;;;-1.69;90.55;100126.94;102817;1310;73657;-84
2021/12/22 10:51:57;;;;;;;23.70;16.30;;;;;;;-1.66;90.71;100126.95;102761;1314;61260;-85
2021/12/22 10:54:34;;;;;;;26.80;21.00;;;;;;;-1.55;90.56;100127.48;103089;1316;61309;-84
2021/12/22 10:57:04;;;;;;;16.90;13.50;;;;;;;-1.41;90.53;100124.51;102842;1317;76931;-85
2021/12/22 10:59:53;;;;;;;18.10;12.10;;;;;;;-1.23;90.61;100122.58;103186;1316;69974;-85
2021/12/22 11:02:23;;;;;;;18.40;13.60;;;;;;;-1.00;90.46;100124.11;103128;1310;73553;-86
2021/12/22 11:04:50;;;;;;;20.30;14.60;;;;;;;-0.81;90.22;100128.79;103021;1317;61441;-84
2021/12/22 11:07:28;;;;;;;23.40;15.50;;;;;;;-0.64;90.05;100126.65;103014;1316;62211;-85
2021/12/22 11:10:02;;;;;;;24.50;16.70;;;;;;;-0.45;89.82;100122.55;103065;1316;76292;-84
2021/12/22 11:12:35;;;;;;;27.10;17.30;;;;;;;-0.23;89.97;100117.91;102769;1313;69325;-84
2021/12/22 11:15:04;;;;;;;24.90;16.70;;;;;;;0.05;89.59;100116.52;102455;1315;72853;-86
2021/12/22 11:17:31;;;;;;;25.90;17.20;;;;;;;0.18;88.95;100112.95;103054;1316;61292;-83
2021/12/22 11:20:04;;;;;;;26.50;16.30;;;;;;;0.25;88.26;100106.80;102482;1316;61296;-85
2021/12/22 11:22:39;;;;;;;85.70;45.60;;;;;;;0.36;88.28;100103.04;102889;1310;75006;-84
2021/12/22 11:25:11;;;;;;;61.40;34.90;;;;;;;0.42;87.96;100098.97;102955;1317;69094;-85